Time;durP1;ratioP1;P1;durP2;ratioP2;P2;SDS_P1;SDS_P2;PMS_P1;PMS_P2;Temp;Humidity;BMP_temperature;BMP_pressure;BME280_temperature;BME280_humidity;BME280_pressure;Samples;Min_cycle;Max_cycle;Signal;HPM_P1;HPM_P2
2023/02/04 00:01:36;;;;;;;0.57;0.57;;;;;;;10.84;36.63;92893.44;6159598;23;20012;-78
2023/02/04 00:04:02;;;;;;;0.93;0.63;;;;;;;10.77;36.96;92883.28;6134612;23;20009;-78
2023/02/04 00:06:27;;;;;;;1.08;0.70;;;;;;;10.77;37.39;92900.84;6185953;23;20048;-79
2023/02/04 00:08:53;;;;;;;1.00;0.77;;;;;;;10.63;37.70;92893.63;6185673;23;20013;-78
2023/02/04 00:11:19;;;;;;;0.43;0.43;;;;;;;10.69;37.63;92899.56;6185756;23;20495;-78
2023/02/04 00:13:44;;;;;;;1.35;0.60;;;;;;;10.52;37.91;92886.91;6186269;23;20437;-78
2023/02/04 00:16:10;;;;;;;1.25;0.73;;;;;;;10.57;37.75;92891.31;6159771;23;20348;-78
2023/02/04 00:18:35;;;;;;;3.08;0.80;;;;;;;10.48;38.21;92891.13;6185984;23;20009;-77
2023/02/04 00:21:01;;;;;;;0.65;0.60;;;;;;;10.53;38.15;92878.00;6159765;23;20004;-78
2023/02/04 00:23:26;;;;;;;0.60;0.60;;;;;;;10.58;38.52;92879.78;6186252;23;20012;-78
2023/02/04 00:25:52;;;;;;;0.75;0.70;;;;;;;10.49;38.46;92874.38;6186734;23;20015;-78
2023/02/04 00:28:17;;;;;;;0.73;0.60;;;;;;;10.50;38.52;92865.47;6159956;23;20017;-78
2023/02/04 00:30:43;;;;;;;0.73;0.50;;;;;;;10.58;38.45;92872.72;6159357;23;20350;-78
2023/02/04 00:33:09;;;;;;;0.50;0.50;;;;;;;10.70;37.78;92874.19;6134166;23;20009;-79
2023/02/04 00:35:36;;;;;;;0.60;0.60;;;;;;;10.71;38.01;92854.81;6185616;23;20044;-78
2023/02/04 00:38:02;;;;;;;0.95;0.60;;;;;;;10.76;37.87;92868.63;6185059;23;20071;-78
2023/02/04 00:40:28;;;;;;;0.63;0.60;;;;;;;10.76;38.12;92870.44;6159255;23;20013;-78
2023/02/04 00:42:53;;;;;;;0.52;0.52;;;;;;;10.81;37.83;92865.97;6185688;23;20008;-78
2023/02/04 00:45:19;;;;;;;0.50;0.50;;;;;;;10.72;38.39;92867.63;6159363;23;20092;-78
2023/02/04 00:47:45;;;;;;;0.70;0.50;;;;;;;10.79;38.00;92846.34;6185820;23;20013;-77
2023/02/04 00:50:10;;;;;;;0.57;0.57;;;;;;;10.73;38.09;92857.94;6159096;23;20020;-78
2023/02/04 00:52:36;;;;;;;0.57;0.50;;;;;;;10.76;38.25;92852.94;6184950;23;20028;-78
2023/02/04 00:55:02;;;;;;;0.50;0.50;;;;;;;10.68;38.14;92860.59;6133955;23;20449;-78
2023/02/04 00:57:27;;;;;;;0.98;0.60;;;;;;;10.73;38.07;92852.69;6158880;23;20449;-78
2023/02/04 00:59:53;;;;;;;0.50;0.50;;;;;;;10.57;38.45;92860.69;6158485;23;20095;-78
2023/02/04 01:02:18;;;;;;;1.17;0.60;;;;;;;10.75;38.12;92846.13;6184937;23;20023;-78
2023/02/04 01:04:44;;;;;;;1.25;0.70;;;;;;;10.70;38.26;92840.16;6158750;23;20017;-79
2023/02/04 01:07:10;;;;;;;5.85;0.60;;;;;;;10.54;38.14;92834.31;6158270;23;20009;-78
2023/02/04 01:09:35;;;;;;;2.05;0.60;;;;;;;10.49;38.31;92832.50;6158318;23;20445;-78
2023/02/04 01:12:01;;;;;;;0.63;0.50;;;;;;;10.40;38.56;92840.19;6185616;23;20047;-78
2023/02/04 01:14:27;;;;;;;0.82;0.65;;;;;;;10.47;38.56;92832.00;6133347;23;20001;-78
2023/02/04 01:16:53;;;;;;;0.52;0.52;;;;;;;10.43;38.64;92838.84;6158479;23;20017;-78
2023/02/04 01:19:19;;;;;;;0.68;0.60;;;;;;;10.47;38.18;92834.63;6158289;23;20032;-78
2023/02/04 01:21:45;;;;;;;0.95;0.60;;;;;;;10.37;38.43;92839.94;6184668;23;20437;-78
2023/02/04 01:24:11;;;;;;;0.55;0.52;;;;;;;10.41;38.54;92830.47;6157805;23;20024;-78
2023/02/04 01:26:56;;;;;;;0.55;0.55;;;;;;;10.30;38.67;92818.56;6162460;23;20527;-78
2023/02/04 01:29:22;;;;;;;0.60;0.60;;;;;;;10.28;38.77;92821.41;6184382;23;20012;-79
2023/02/04 01:31:49;;;;;;;0.60;0.60;;;;;;;10.33;38.64;92818.00;6158541;23;20013;-78
2023/02/04 01:34:14;;;;;;;1.00;0.57;;;;;;;10.49;38.46;92819.44;6158773;23;20068;-78
2023/02/04 01:36:40;;;;;;;3.60;0.65;;;;;;;10.45;38.60;92826.25;6183524;23;20352;-78
2023/02/04 01:39:05;;;;;;;0.70;0.52;;;;;;;10.43;38.49;92822.38;6157868;23;20410;-78
2023/02/04 01:41:31;;;;;;;0.50;0.50;;;;;;;10.65;38.08;92817.44;6158006;23;20009;-78
2023/02/04 01:43:58;;;;;;;1.83;0.60;;;;;;;10.70;37.85;92819.22;6156975;23;20048;-78
2023/02/04 01:46:23;;;;;;;0.60;0.60;;;;;;;10.74;38.16;92820.19;6184528;23;20445;-78
2023/02/04 01:48:49;;;;;;;0.65;0.65;;;;;;;10.59;38.20;92832.41;6158038;23;20437;-78
2023/02/04 01:51:18;;;;;;;0.80;0.60;;;;;;;10.61;38.75;92830.28;6183655;23;20083;-78
2023/02/04 01:53:43;;;;;;;0.50;0.50;;;;;;;10.79;38.15;92820.94;6157985;23;20037;-78
2023/02/04 01:56:19;;;;;;;0.60;0.60;;;;;;;10.80;38.10;92821.72;6184289;23;20471;-78
2023/02/04 01:58:45;;;;;;;0.40;0.40;;;;;;;10.76;38.25;92818.09;6158104;23;20009;-78
2023/02/04 02:01:40;;;;;;;0.52;0.52;;;;;;;10.95;38.19;92829.41;6157803;23;20051;-78
2023/02/04 02:04:08;;;;;;;0.40;0.40;;;;;;;10.81;38.63;92828.53;6171213;23;20017;-78
2023/02/04 02:06:35;;;;;;;1.35;0.60;;;;;;;10.73;38.77;92826.50;6183275;23;19997;-77
2023/02/04 02:09:01;;;;;;;0.60;0.60;;;;;;;10.71;38.86;92829.38;6184021;23;20016;-78
2023/02/04 02:11:27;;;;;;;0.68;0.68;;;;;;;10.66;38.71;92820.81;6158408;23;20430;-79
2023/02/04 02:13:53;;;;;;;0.57;0.57;;;;;;;10.80;38.94;92826.94;6184178;23;20348;-78
2023/02/04 02:16:19;;;;;;;0.50;0.50;;;;;;;10.79;39.03;92817.53;6184470;23;20001;-78
2023/02/04 02:18:45;;;;;;;0.50;0.50;;;;;;;10.63;39.48;92822.94;6184264;23;20063;-79
2023/02/04 02:21:15;;;;;;;0.40;0.40;;;;;;;10.58;39.59;92815.16;6183800;23;20380;-78
2023/02/04 02:23:47;;;;;;;0.50;0.50;;;;;;;10.59;39.45;92816.69;6184109;23;20035;-77
2023/02/04 02:26:15;;;;;;;0.40;0.40;;;;;;;10.59;39.77;92816.69;6157801;23;20024;-77
2023/02/04 02:28:41;;;;;;;0.55;0.55;;;;;;;10.50;39.85;92810.50;6158051;23;20016;-78
2023/02/04 02:31:07;;;;;;;0.50;0.50;;;;;;;10.52;39.82;92795.31;6133172;23;20005;-78
2023/02/04 02:33:35;;;;;;;0.55;0.55;;;;;;;10.68;39.88;92787.28;6158359;23;20079;-78
2023/02/04 02:36:00;;;;;;;0.60;0.60;;;;;;;10.49;40.24;92801.09;6108325;23;20017;-78
2023/02/04 02:38:26;;;;;;;1.13;0.47;;;;;;;10.43;40.41;92815.28;6157673;23;20491;-78
2023/02/04 02:40:52;;;;;;;0.43;0.43;;;;;;;10.28;40.49;92794.47;6133024;23;20028;-78
2023/02/04 02:43:22;;;;;;;0.60;0.60;;;;;;;10.29;40.50;92798.66;6158492;23;20012;-78
2023/02/04 02:45:49;;;;;;;0.50;0.50;;;;;;;10.07;41.01;92789.41;6183996;23;20460;-78
2023/02/04 02:48:15;;;;;;;0.50;0.50;;;;;;;10.18;41.15;92800.56;6184048;23;20010;-78
2023/02/04 02:50:42;;;;;;;0.50;0.50;;;;;;;10.08;41.47;92787.56;6183238;23;20013;-78
2023/02/04 02:53:14;;;;;;;0.60;0.60;;;;;;;10.15;41.41;92785.41;6183725;23;20024;-77
2023/02/04 02:55:41;;;;;;;;;;;;;;;10.13;41.94;92790.94;6157978;23;20456;-78
2023/02/04 02:58:15;;;;;;;0.40;0.40;;;;;;;10.04;41.62;92776.88;6129667;23;19943;-78
2023/02/04 03:00:41;;;;;;;0.93;0.70;;;;;;;9.92;41.76;92792.16;6156515;23;20044;-78
2023/02/04 03:03:21;;;;;;;0.45;0.45;;;;;;;10.09;42.17;92771.63;6134154;23;20422;-78
2023/02/04 03:05:51;;;;;;;3.17;0.70;;;;;;;10.05;42.46;92781.06;6159293;23;20072;-78
2023/02/04 03:08:18;;;;;;;0.60;0.60;;;;;;;10.09;42.62;92781.31;6186151;23;20013;-78
2023/02/04 03:10:45;;;;;;;0.45;0.45;;;;;;;10.36;42.21;92786.06;6135490;23;20001;-78
2023/02/04 03:13:14;;;;;;;0.50;0.50;;;;;;;10.37;41.99;92777.13;6159733;23;20036;-79
2023/02/04 03:15:41;;;;;;;0.40;0.40;;;;;;;10.36;41.69;92762.50;6186528;23;20218;-78
2023/02/04 03:18:07;;;;;;;0.40;0.40;;;;;;;10.34;41.99;92775.09;6185975;23;20065;-78
2023/02/04 03:20:35;;;;;;;0.68;0.68;;;;;;;10.33;41.79;92778.75;6160490;23;20435;-78
2023/02/04 03:23:01;;;;;;;0.65;0.50;;;;;;;10.35;42.24;92780.00;6185475;23;20032;-78
2023/02/04 03:25:27;;;;;;;0.60;0.50;;;;;;;10.36;41.95;92784.22;6159879;23;20095;-78
2023/02/04 03:27:56;;;;;;;0.40;0.40;;;;;;;10.72;41.33;92773.38;6158788;23;20013;-77
2023/02/04 03:30:23;;;;;;;0.40;0.40;;;;;;;10.69;41.27;92763.44;6159554;23;20001;-79
2023/02/04 03:32:48;;;;;;;0.50;0.50;;;;;;;10.63;41.33;92778.44;6187015;23;20421;-77
2023/02/04 03:35:14;;;;;;;0.47;0.47;;;;;;;10.71;41.37;92765.78;6159952;23;20013;-78
2023/02/04 03:37:40;;;;;;;0.47;0.47;;;;;;;10.58;41.88;92768.03;6186762;23;20455;-78
2023/02/04 03:40:06;;;;;;;0.88;0.60;;;;;;;10.50;42.27;92765.22;6186540;23;20024;-78
2023/02/04 03:42:31;;;;;;;0.50;0.50;;;;;;;10.41;41.65;92778.16;6159526;23;20027;-79
2023/02/04 03:44:57;;;;;;;0.82;0.60;;;;;;;10.59;41.35;92772.19;6186225;23;20005;-79
2023/02/04 03:47:23;;;;;;;0.45;0.45;;;;;;;10.63;41.34;92769.81;6134277;23;20013;-78
2023/02/04 03:49:48;;;;;;;0.52;0.52;;;;;;;10.62;41.16;92771.63;6134673;23;20028;-78
2023/02/04 03:52:14;;;;;;;0.50;0.50;;;;;;;10.50;41.78;92776.47;6185563;23;20456;-79
2023/02/04 03:54:40;;;;;;;0.40;0.40;;;;;;;10.46;41.47;92769.47;6185814;23;20008;-78
2023/02/04 03:57:05;;;;;;;0.40;0.40;;;;;;;10.44;41.93;92771.56;6185633;23;20017;-79
2023/02/04 03:59:31;;;;;;;0.40;0.40;;;;;;;10.44;41.98;92772.34;6185566;23;20013;-78
2023/02/04 04:01:56;;;;;;;0.82;0.57;;;;;;;10.70;41.40;92772.09;6134467;23;20005;-78
2023/02/04 04:04:22;;;;;;;0.35;0.35;;;;;;;10.62;41.22;92769.00;6185267;23;20084;-78
2023/02/04 04:06:48;;;;;;;0.40;0.40;;;;;;;10.61;41.25;92761.44;6185117;23;20048;-79
2023/02/04 04:09:13;;;;;;;0.55;0.55;;;;;;;10.66;41.09;92763.22;6159566;23;20020;-79
2023/02/04 04:11:39;;;;;;;0.52;0.52;;;;;;;10.67;41.22;92756.91;6185953;23;20064;-79
2023/02/04 04:14:04;;;;;;;0.50;0.50;;;;;;;10.70;41.16;92751.16;6134931;23;20021;-78
2023/02/04 04:16:30;;;;;;;0.45;0.45;;;;;;;10.66;41.05;92764.00;6185255;23;20020;-78
2023/02/04 04:18:56;;;;;;;0.60;0.60;;;;;;;10.58;41.52;92759.38;6159462;23;20145;-78
2023/02/04 04:21:21;;;;;;;0.50;0.47;;;;;;;10.66;41.44;92763.22;6184484;23;20092;-78
2023/02/04 04:23:47;;;;;;;0.50;0.50;;;;;;;10.61;41.47;92756.97;6186056;23;20009;-78
2023/02/04 04:26:12;;;;;;;0.50;0.50;;;;;;;10.59;41.52;92769.56;6186475;23;20017;-78
2023/02/04 04:28:38;;;;;;;0.50;0.50;;;;;;;10.51;41.55;92761.53;6186024;23;20433;-78
2023/02/04 04:31:04;;;;;;;0.60;0.60;;;;;;;10.57;41.17;92761.22;6186107;23;20017;-78
2023/02/04 04:33:29;;;;;;;0.45;0.45;;;;;;;10.55;41.46;92759.94;6186034;23;20021;-77
2023/02/04 04:35:55;;;;;;;0.30;0.30;;;;;;;10.56;41.25;92769.34;6185775;23;20077;-78
2023/02/04 04:38:21;;;;;;;0.60;0.60;;;;;;;10.53;41.59;92767.28;6159355;23;20012;-78
2023/02/04 04:40:46;;;;;;;0.30;0.30;;;;;;;10.63;41.19;92760.09;6186911;23;20012;-78
2023/02/04 04:43:12;;;;;;;2.17;0.40;;;;;;;10.61;40.81;92770.06;6185748;23;20334;-79
2023/02/04 04:45:37;;;;;;;0.40;0.40;;;;;;;10.66;40.92;92750.13;6185168;23;20020;-78
2023/02/04 04:48:03;;;;;;;0.45;0.45;;;;;;;10.67;41.05;92746.44;6185706;23;20013;-78
2023/02/04 04:50:29;;;;;;;0.50;0.50;;;;;;;10.60;40.92;92752.81;6185171;23;20005;-78
2023/02/04 04:52:54;;;;;;;1.25;0.52;;;;;;;10.60;41.21;92757.25;6158533;23;20071;-78
2023/02/04 04:55:20;;;;;;;0.45;0.45;;;;;;;10.67;40.94;92759.53;6185189;23;20017;-78
2023/02/04 04:57:46;;;;;;;0.30;0.30;;;;;;;10.63;40.77;92762.72;6185160;23;20017;-78
2023/02/04 05:00:16;;;;;;;0.40;0.40;;;;;;;10.66;41.10;92766.63;6185247;23;20040;-79
2023/02/04 05:02:42;;;;;;;0.40;0.40;;;;;;;10.76;40.53;92768.34;6159143;23;20075;-78
2023/02/04 05:05:08;;;;;;;0.35;0.35;;;;;;;10.72;40.63;92756.88;6159239;23;20008;-78
2023/02/04 05:07:34;;;;;;;0.45;0.45;;;;;;;10.84;40.24;92770.34;6185478;23;20013;-78
2023/02/04 05:10:00;;;;;;;0.50;0.50;;;;;;;10.94;39.97;92765.00;6185828;23;20109;-78
2023/02/04 05:12:25;;;;;;;1.90;0.63;;;;;;;10.94;39.80;92775.47;6185283;23;20001;-78
2023/02/04 05:14:51;;;;;;;0.50;0.50;;;;;;;11.00;39.55;92763.84;6185560;23;20028;-78
2023/02/04 05:17:17;;;;;;;0.40;0.40;;;;;;;10.96;39.56;92749.75;6185434;23;20037;-78
2023/02/04 05:19:42;;;;;;;0.50;0.50;;;;;;;10.96;39.40;92769.94;6158304;23;20298;-79
2023/02/04 05:22:08;;;;;;;0.60;0.60;;;;;;;11.05;39.25;92765.63;6158378;23;20009;-78
2023/02/04 05:24:33;;;;;;;0.50;0.50;;;;;;;10.95;39.63;92771.78;6158968;23;20088;-79
2023/02/04 05:26:59;;;;;;;0.30;0.30;;;;;;;10.84;39.86;92775.59;6184539;23;20165;-78
2023/02/04 05:29:24;;;;;;;0.30;0.30;;;;;;;10.76;39.62;92789.28;6158843;23;20020;-78
2023/02/04 05:31:50;;;;;;;0.40;0.40;;;;;;;10.82;39.96;92772.47;6185120;23;20130;-78
2023/02/04 05:34:15;;;;;;;0.50;0.50;;;;;;;10.66;40.41;92776.31;6158329;23;20369;-78
2023/02/04 05:36:41;;;;;;;0.38;0.38;;;;;;;10.58;40.02;92781.13;6185131;23;20040;-79
2023/02/04 05:39:07;;;;;;;0.40;0.40;;;;;;;10.54;40.28;92777.50;6158458;23;20148;-78
2023/02/04 05:41:32;;;;;;;0.40;0.40;;;;;;;10.50;40.19;92786.16;6158733;23;20036;-78
2023/02/04 05:43:58;;;;;;;0.43;0.43;;;;;;;10.59;39.63;92780.03;6186219;23;20013;-78
2023/02/04 05:46:23;;;;;;;0.40;0.40;;;;;;;10.76;39.37;92786.66;6159191;23;20009;-77
2023/02/04 05:48:49;;;;;;;0.30;0.30;;;;;;;10.92;38.80;92767.13;6157965;23;20260;-78
2023/02/04 05:51:14;;;;;;;0.30;0.30;;;;;;;11.15;38.25;92794.31;6184526;23;20021;-77
2023/02/04 05:53:40;;;;;;;0.30;0.30;;;;;;;11.21;38.19;92800.25;6184887;23;20001;-77
2023/02/04 05:56:06;;;;;;;0.40;0.40;;;;;;;11.37;37.60;92808.72;6158296;23;20068;-79
2023/02/04 05:58:34;;;;;;;0.40;0.40;;;;;;;11.48;37.42;92789.16;6157932;23;20087;-78
2023/02/04 06:01:00;;;;;;;0.40;0.40;;;;;;;11.39;37.81;92794.28;6184691;23;20017;-78
2023/02/04 06:03:27;;;;;;;0.50;0.50;;;;;;;11.26;38.22;92808.09;6184687;23;20017;-78
2023/02/04 06:05:53;;;;;;;1.55;0.50;;;;;;;11.33;38.05;92784.94;6158613;23;20048;-78
2023/02/04 06:08:18;;;;;;;0.50;0.50;;;;;;;11.36;37.87;92794.84;6185508;23;20017;-78
2023/02/04 06:10:44;;;;;;;0.85;0.38;;;;;;;11.32;38.06;92808.78;6185399;23;20017;-79
2023/02/04 06:13:10;;;;;;;0.30;0.30;;;;;;;11.41;37.48;92805.25;6158424;23;20027;-78
2023/02/04 06:15:35;;;;;;;0.30;0.30;;;;;;;11.26;38.06;92805.47;6184935;23;20005;-78
2023/02/04 06:18:01;;;;;;;0.40;0.40;;;;;;;11.18;38.28;92804.22;6157879;23;20020;-78
2023/02/04 06:20:26;;;;;;;0.50;0.50;;;;;;;11.21;38.02;92808.94;6184811;23;20409;-79
2023/02/04 06:22:53;;;;;;;0.63;0.40;;;;;;;11.10;38.50;92794.41;6185301;23;20017;-79
2023/02/04 06:25:20;;;;;;;0.40;0.40;;;;;;;11.15;38.15;92812.66;6184814;23;20083;-78
2023/02/04 06:27:45;;;;;;;0.30;0.30;;;;;;;11.08;38.15;92803.56;6184888;23;20008;-78
2023/02/04 06:30:12;;;;;;;1.35;0.40;;;;;;;11.04;38.37;92811.22;6158090;23;20017;-78
2023/02/04 06:32:38;;;;;;;1.35;1.23;;;;;;;10.93;38.57;92807.94;6184594;23;20017;-79
2023/02/04 06:35:05;;;;;;;0.90;0.50;;;;;;;10.92;38.64;92813.44;6184740;23;20001;-79
2023/02/04 06:37:30;;;;;;;0.50;0.50;;;;;;;10.90;38.86;92824.22;6183992;23;20044;-78
2023/02/04 06:39:56;;;;;;;0.47;0.47;;;;;;;10.85;38.94;92821.66;6158095;23;20013;-78
2023/02/04 06:42:24;;;;;;;0.40;0.40;;;;;;;10.89;38.73;92838.38;6183912;23;20017;-78
2023/02/04 06:44:50;;;;;;;1.65;0.50;;;;;;;10.90;38.96;92839.94;6184587;23;20302;-78
2023/02/04 06:47:16;;;;;;;0.40;0.40;;;;;;;11.02;38.76;92835.06;6183569;23;20016;-78
2023/02/04 06:49:42;;;;;;;0.88;0.52;;;;;;;11.02;38.91;92832.47;6157988;23;20017;-78
2023/02/04 06:52:08;;;;;;;0.43;0.43;;;;;;;11.16;38.42;92837.03;6184912;23;20005;-79
2023/02/04 06:54:34;;;;;;;0.40;0.40;;;;;;;11.10;38.68;92843.38;6184619;23;20060;-79
2023/02/04 06:57:05;;;;;;;0.40;0.40;;;;;;;11.09;38.72;92836.59;6183859;23;20017;-78
2023/02/04 06:59:37;;;;;;;0.60;0.60;;;;;;;11.15;38.90;92840.72;6158358;23;20043;-78
2023/02/04 07:02:04;;;;;;;0.50;0.50;;;;;;;11.28;39.00;92841.84;6182752;23;20063;-78
2023/02/04 07:04:30;;;;;;;0.40;0.40;;;;;;;11.34;38.84;92835.50;6157378;23;20096;-78
2023/02/04 07:06:55;;;;;;;0.50;0.50;;;;;;;11.72;38.39;92825.03;6157769;23;20041;-78
2023/02/04 07:09:21;;;;;;;0.43;0.43;;;;;;;12.37;37.49;92819.84;6158075;23;20483;-78
2023/02/04 07:11:47;;;;;;;0.40;0.40;;;;;;;13.35;35.59;92831.19;6183799;23;20008;-78
2023/02/04 07:14:13;;;;;;;0.40;0.40;;;;;;;14.15;34.16;92827.88;6133889;23;20065;-79
2023/02/04 07:16:38;;;;;;;0.40;0.40;;;;;;;14.37;33.58;92829.72;6184269;23;20281;-79
2023/02/04 07:19:04;;;;;;;1.63;0.85;;;;;;;15.27;32.90;92834.03;6184897;23;20017;-78
2023/02/04 07:21:30;;;;;;;0.40;0.40;;;;;;;16.34;30.91;92834.59;6184600;23;20020;-78
2023/02/04 07:23:56;;;;;;;0.70;0.60;;;;;;;17.39;29.58;92835.84;6185300;23;20005;-79
2023/02/04 07:26:21;;;;;;;0.40;0.40;;;;;;;18.27;28.20;92842.13;6184748;23;20468;-79
2023/02/04 07:28:47;;;;;;;0.30;0.30;;;;;;;19.05;27.01;92850.44;6184525;23;20020;-80
2023/02/04 07:31:14;;;;;;;0.38;0.38;;;;;;;19.85;25.95;92844.59;6182897;23;20011;-80
2023/02/04 07:33:39;;;;;;;0.40;0.40;;;;;;;20.60;24.84;92835.31;6186171;23;20507;-81
2023/02/04 07:36:05;;;;;;;0.32;0.32;;;;;;;21.34;23.83;92829.53;6187696;23;20016;-80
2023/02/04 07:38:31;;;;;;;0.30;0.30;;;;;;;21.57;23.78;92829.72;6161761;23;20463;-81
2023/02/04 07:40:57;;;;;;;0.30;0.30;;;;;;;21.61;23.46;92835.91;6162453;23;20068;-84
2023/02/04 07:43:22;;;;;;;1.75;0.40;;;;;;;21.70;23.09;92833.81;6165600;23;20157;-83
2023/02/04 07:45:48;;;;;;;0.40;0.40;;;;;;;22.35;22.76;92837.88;6139499;23;20025;-81
2023/02/04 07:48:14;;;;;;;0.65;0.50;;;;;;;22.86;21.74;92843.03;6138308;23;20009;-84
2023/02/04 07:50:39;;;;;;;0.35;0.35;;;;;;;22.97;21.63;92835.22;6114824;23;20047;-84
2023/02/04 07:53:05;;;;;;;0.47;0.47;;;;;;;23.25;21.42;92835.72;6138125;23;20048;-83
2023/02/04 07:55:30;;;;;;;0.60;0.60;;;;;;;24.06;20.71;92847.25;6138769;23;20024;-83
2023/02/04 07:57:56;;;;;;;0.50;0.50;;;;;;;24.39;20.59;92851.13;6164642;23;20017;-83
2023/02/04 08:00:23;;;;;;;0.50;0.50;;;;;;;24.88;19.69;92850.16;6165386;23;20090;-84
2023/02/04 08:02:48;;;;;;;0.40;0.40;;;;;;;25.30;19.31;92862.44;6192417;23;20029;-82
2023/02/04 08:05:14;;;;;;;0.55;0.40;;;;;;;25.01;19.26;92856.78;6138995;23;20380;-83
2023/02/04 08:07:40;;;;;;;0.40;0.40;;;;;;;24.24;19.63;92860.84;6163665;23;20017;-83
2023/02/04 08:10:07;;;;;;;0.40;0.30;;;;;;;23.67;20.22;92866.91;6114807;23;20342;-83
2023/02/04 08:12:33;;;;;;;0.30;0.30;;;;;;;21.90;21.90;92877.28;6139311;23;20008;-83
2023/02/04 08:15:00;;;;;;;0.40;0.40;;;;;;;21.07;23.18;92889.72;6190275;23;20013;-82
2023/02/04 08:17:26;;;;;;;0.30;0.30;;;;;;;20.00;23.95;92875.03;6164590;23;20017;-83
2023/02/04 08:19:52;;;;;;;0.38;0.38;;;;;;;19.50;24.65;92871.63;6164216;23;20071;-83
2023/02/04 08:22:18;;;;;;;0.30;0.30;;;;;;;18.87;25.51;92879.81;6163532;23;20017;-82
2023/02/04 08:24:43;;;;;;;0.55;0.40;;;;;;;18.38;26.23;92882.25;6163288;23;20432;-81
2023/02/04 08:27:09;;;;;;;0.43;0.35;;;;;;;17.63;27.25;92892.69;6163443;23;20014;-83
2023/02/04 08:29:35;;;;;;;1.20;0.55;;;;;;;17.23;27.74;92890.41;6164041;23;20012;-82
2023/02/04 08:32:00;;;;;;;0.52;0.40;;;;;;;17.04;28.51;92890.75;6137733;23;20025;-83
2023/02/04 08:34:26;;;;;;;0.25;0.25;;;;;;;17.33;28.31;92887.38;6189228;23;20016;-83
2023/02/04 08:36:52;;;;;;;0.20;0.20;;;;;;;16.83;28.87;92896.72;6162780;23;20008;-82
2023/02/04 08:39:17;;;;;;;0.20;0.20;;;;;;;16.43;29.98;92904.81;6190808;23;20023;-82
2023/02/04 08:41:43;;;;;;;0.93;0.30;;;;;;;16.44;29.57;92913.53;6189702;23;20009;-82
2023/02/04 08:44:08;;;;;;;1.48;0.20;;;;;;;16.54;29.14;92928.31;6189875;23;20206;-82
2023/02/04 08:46:34;;;;;;;0.82;0.40;;;;;;;16.12;29.64;92920.84;6139241;23;20013;-82
2023/02/04 08:49:00;;;;;;;0.57;0.30;;;;;;;16.16;30.03;92928.91;6163361;23;20017;-81
2023/02/04 08:51:26;;;;;;;1.05;0.30;;;;;;;16.30;29.91;92921.63;6189466;23;20005;-82
2023/02/04 08:53:51;;;;;;;0.30;0.17;;;;;;;16.31;29.96;92911.84;6189948;23;20012;-82
2023/02/04 08:56:19;;;;;;;0.30;0.30;;;;;;;16.55;29.26;92911.34;6162760;23;20386;-82
2023/02/04 08:58:46;;;;;;;0.25;0.25;;;;;;;16.26;30.32;92912.78;6163424;23;20386;-82
2023/02/04 09:01:12;;;;;;;0.20;0.20;;;;;;;16.14;29.90;92910.72;6189487;23;20008;-81
2023/02/04 09:03:37;;;;;;;0.40;0.40;;;;;;;16.25;30.58;92913.84;6190096;23;20024;-82
2023/02/04 09:06:04;;;;;;;1.02;0.32;;;;;;;16.47;30.18;92917.44;6188843;23;20005;-82
2023/02/04 09:08:30;;;;;;;0.30;0.30;;;;;;;16.73;29.45;92918.19;6190152;23;20017;-82
2023/02/04 09:10:55;;;;;;;0.20;0.20;;;;;;;17.41;29.96;92917.56;6189308;23;20017;-82
2023/02/04 09:13:21;;;;;;;0.63;0.40;;;;;;;18.05;28.16;92922.69;6189247;23;20005;-82
2023/02/04 09:15:46;;;;;;;0.30;0.30;;;;;;;17.85;27.62;92923.44;6163099;23;20033;-81
2023/02/04 09:18:16;;;;;;;0.20;0.20;;;;;;;18.13;27.65;92928.28;6162809;23;20017;-82
2023/02/04 09:20:43;;;;;;;0.30;0.30;;;;;;;18.67;26.24;92921.16;6188770;23;20016;-82
2023/02/04 09:23:10;;;;;;;0.30;0.30;;;;;;;19.32;27.27;92926.78;6163371;23;20028;-81
2023/02/04 09:25:40;;;;;;;0.30;0.30;;;;;;;19.80;26.78;92921.09;6188737;23;20016;-82
2023/02/04 09:28:08;;;;;;;0.20;0.20;;;;;;;20.13;25.99;92924.38;6162970;23;20061;-81
2023/02/04 09:30:34;;;;;;;0.70;0.22;;;;;;;20.66;24.87;92928.94;6163108;23;20008;-82
2023/02/04 09:33:00;;;;;;;3.20;0.40;;;;;;;21.02;24.50;92937.88;6163656;23;20262;-82
2023/02/04 09:35:26;;;;;;;3.20;0.32;;;;;;;21.62;24.06;92938.69;6162383;23;20445;-82
2023/02/04 09:37:52;;;;;;;2.38;0.30;;;;;;;20.96;23.53;92940.00;6188190;23;20016;-82
2023/02/04 09:40:19;;;;;;;0.25;0.25;;;;;;;21.09;25.10;92941.50;6188530;23;20048;-82
2023/02/04 09:42:50;;;;;;;0.17;0.17;;;;;;;22.40;23.48;92957.59;6162739;23;20013;-82
2023/02/04 09:45:31;;;;;;;1.13;0.20;;;;;;;23.17;22.45;92956.09;6188872;23;20013;-82
2023/02/04 09:47:59;;;;;;;0.40;0.40;;;;;;;23.15;21.86;92963.72;6161973;23;20012;-82
2023/02/04 09:50:27;;;;;;;0.55;0.30;;;;;;;23.03;21.15;92965.41;6188992;23;20359;-81
2023/02/04 09:52:56;;;;;;;0.30;0.30;;;;;;;22.98;22.12;92970.22;6189429;23;20005;-82
2023/02/04 09:55:29;;;;;;;0.20;0.20;;;;;;;22.98;22.37;92962.22;6188619;23;20009;-82
2023/02/04 09:57:55;;;;;;;0.35;0.30;;;;;;;22.93;22.03;92976.63;6162289;23;20322;-82
2023/02/04 10:00:24;;;;;;;0.20;0.20;;;;;;;23.28;21.75;92970.44;6188809;23;20024;-82
2023/02/04 10:02:49;;;;;;;0.50;0.30;;;;;;;23.03;22.41;92981.44;6188617;23;19997;-82
2023/02/04 10:05:36;;;;;;;0.20;0.20;;;;;;;22.99;21.30;92977.91;6188172;23;20017;-82
2023/02/04 10:08:04;;;;;;;0.77;0.50;;;;;;;22.80;22.21;92985.88;6189484;23;20051;-82
2023/02/04 10:10:30;;;;;;;0.20;0.20;;;;;;;22.01;22.80;92994.78;6188932;23;20029;-82
2023/02/04 10:13:02;;;;;;;0.30;0.30;;;;;;;22.64;22.01;92984.03;6187857;23;20012;-82
2023/02/04 10:15:28;;;;;;;0.30;0.30;;;;;;;22.79;22.28;92990.44;6162170;23;20112;-82
2023/02/04 10:18:00;;;;;;;0.75;0.40;;;;;;;22.45;22.31;92989.34;6188479;23;20020;-82
2023/02/04 10:20:26;;;;;;;0.30;0.30;;;;;;;22.83;21.73;92990.50;6161386;23;20345;-82
2023/02/04 10:22:54;;;;;;;0.30;0.30;;;;;;;23.21;21.23;92997.00;6162627;23;20045;-82
2023/02/04 10:25:24;;;;;;;4.07;0.45;;;;;;;22.89;21.75;92994.44;6188613;23;20467;-82
2023/02/04 10:27:54;;;;;;;0.88;0.35;;;;;;;22.83;21.46;92995.84;6162731;23;20065;-82
2023/02/04 10:30:32;;;;;;;0.30;0.30;;;;;;;22.79;21.76;92990.44;6188094;23;20009;-82
2023/02/04 10:32:58;;;;;;;0.20;0.20;;;;;;;22.83;21.64;92985.97;6188422;23;20123;-82
2023/02/04 10:35:25;;;;;;;0.25;0.25;;;;;;;22.90;21.44;92979.19;6189098;23;20321;-82
2023/02/04 10:38:05;;;;;;;0.38;0.38;;;;;;;22.83;21.52;92993.97;6188661;23;20017;-82
2023/02/04 10:40:35;;;;;;;1.42;0.65;;;;;;;22.88;21.54;92998.25;6187731;23;20017;-82
2023/02/04 10:43:15;;;;;;;0.65;0.45;;;;;;;22.45;22.30;92986.69;6163260;23;20021;-82
2023/02/04 10:46:02;;;;;;;0.50;0.30;;;;;;;22.61;21.71;92995.41;6188695;23;20013;-82
2023/02/04 10:48:29;;;;;;;1.30;0.28;;;;;;;22.78;21.61;92983.56;6188475;23;20005;-83
2023/02/04 10:50:56;;;;;;;0.25;0.25;;;;;;;22.82;21.57;92984.41;6162173;23;20044;-82
2023/02/04 10:56:20;;;;;;;0.88;0.30;;;;;;;22.73;21.57;92989.16;6188004;23;20114;-83
2023/02/04 10:58:47;;;;;;;0.22;0.22;;;;;;;22.25;21.42;92999.19;6185042;23;20012;-78
2023/02/04 11:01:15;;;;;;;0.30;0.30;;;;;;;21.94;21.54;92999.97;6184742;23;20024;-79
2023/02/04 11:03:41;;;;;;;0.32;0.30;;;;;;;21.54;22.62;93006.97;6160233;23;20020;-79
2023/02/04 11:06:14;;;;;;;2.45;0.32;;;;;;;21.34;21.93;92992.72;6187391;23;20064;-79
2023/02/04 11:08:41;;;;;;;0.50;0.10;;;;;;;21.03;23.09;92988.13;6161917;23;20005;-78
2023/02/04 11:11:18;;;;;;;0.30;0.30;;;;;;;20.96;23.70;92991.34;6186381;23;20027;-78
2023/02/04 11:13:57;;;;;;;2.20;0.40;;;;;;;20.97;23.32;92987.56;6161039;23;20013;-80
2023/02/04 11:16:34;;;;;;;0.52;0.50;;;;;;;20.90;22.55;92994.59;6185873;23;20044;-79
2023/02/04 11:19:01;;;;;;;0.30;0.22;;;;;;;20.97;22.50;92995.56;6159710;23;20032;-79
2023/02/04 11:21:40;;;;;;;0.90;0.22;;;;;;;20.09;23.63;92992.59;6186150;23;20131;-79
2023/02/04 11:24:15;;;;;;;1.55;0.47;;;;;;;20.42;23.00;92986.34;6186045;23;20091;-79
2023/02/04 11:26:43;;;;;;;0.20;0.20;;;;;;;19.74;23.66;92992.25;6161409;23;20020;-79
2023/02/04 11:29:25;;;;;;;0.50;0.30;;;;;;;19.78;24.70;92992.38;6186603;23;20084;-78
2023/02/04 11:31:50;;;;;;;3.35;0.30;;;;;;;19.37;24.52;93005.44;6161824;23;20073;-79
2023/02/04 11:34:17;;;;;;;0.63;0.30;;;;;;;19.75;23.80;92997.22;6187061;23;20013;-79
2023/02/04 11:37:10;;;;;;;0.47;0.40;;;;;;;19.01;24.75;92998.91;6161232;23;20004;-79